sensor_id;sensor_type;location;lat;lon;timestamp;temperature;humidity
82001;SHT30;71522;50.870;3.524;2024-02-28T00:02:00;4.46;80.06
82001;SHT30;71522;50.870;3.524;2024-02-28T00:04:25;4.52;80.12
82001;SHT30;71522;50.870;3.524;2024-02-28T00:06:51;4.47;79.96
82001;SHT30;71522;50.870;3.524;2024-02-28T00:09:17;4.49;80.17
82001;SHT30;71522;50.870;3.524;2024-02-28T00:11:44;4.66;80.33
82001;SHT30;71522;50.870;3.524;2024-02-28T00:14:11;4.74;80.18
82001;SHT30;71522;50.870;3.524;2024-02-28T00:16:40;4.71;79.99
82001;SHT30;71522;50.870;3.524;2024-02-28T00:19:08;4.64;80.06
82001;SHT30;71522;50.870;3.524;2024-02-28T00:21:40;4.58;79.94
82001;SHT30;71522;50.870;3.524;2024-02-28T00:24:06;4.50;79.98
82001;SHT30;71522;50.870;3.524;2024-02-28T00:26:32;4.47;80.20
82001;SHT30;71522;50.870;3.524;2024-02-28T00:28:59;4.52;80.47
82001;SHT30;71522;50.870;3.524;2024-02-28T00:31:27;4.60;80.61
82001;SHT30;71522;50.870;3.524;2024-02-28T00:33:52;4.74;80.42
82001;SHT30;71522;50.870;3.524;2024-02-28T00:36:18;4.85;80.12
82001;SHT30;71522;50.870;3.524;2024-02-28T00:38:44;4.92;79.66
82001;SHT30;71522;50.870;3.524;2024-02-28T00:41:10;4.95;79.55
82001;SHT30;71522;50.870;3.524;2024-02-28T00:43:35;4.84;79.42
82001;SHT30;71522;50.870;3.524;2024-02-28T00:46:01;4.84;79.64
82001;SHT30;71522;50.870;3.524;2024-02-28T00:48:29;4.87;79.55
82001;SHT30;71522;50.870;3.524;2024-02-28T00:50:54;4.87;79.38
82001;SHT30;71522;50.870;3.524;2024-02-28T00:53:21;4.85;79.40
82001;SHT30;71522;50.870;3.524;2024-02-28T00:55:46;4.91;79.42
82001;SHT30;71522;50.870;3.524;2024-02-28T00:58:13;5.01;79.00
82001;SHT30;71522;50.870;3.524;2024-02-28T01:00:38;5.04;78.60
82001;SHT30;71522;50.870;3.524;2024-02-28T01:03:04;5.01;78.48
82001;SHT30;71522;50.870;3.524;2024-02-28T01:05:31;5.01;78.35
82001;SHT30;71522;50.870;3.524;2024-02-28T01:07:56;4.97;78.32
82001;SHT30;71522;50.870;3.524;2024-02-28T01:10:22;4.97;78.46
82001;SHT30;71522;50.870;3.524;2024-02-28T01:12:49;5.01;78.38
82001;SHT30;71522;50.870;3.524;2024-02-28T01:15:14;5.02;78.29
82001;SHT30;71522;50.870;3.524;2024-02-28T01:17:40;4.98;78.26
82001;SHT30;71522;50.870;3.524;2024-02-28T01:20:06;4.92;78.23
82001;SHT30;71522;50.870;3.524;2024-02-28T01:22:34;4.94;78.54
82001;SHT30;71522;50.870;3.524;2024-02-28T01:25:01;4.94;78.58
82001;SHT30;71522;50.870;3.524;2024-02-28T01:27:26;4.92;78.65
82001;SHT30;71522;50.870;3.524;2024-02-28T01:29:52;4.94;78.69
82001;SHT30;71522;50.870;3.524;2024-02-28T01:32:19;4.97;78.59
82001;SHT30;71522;50.870;3.524;2024-02-28T01:34:48;4.97;78.46
82001;SHT30;71522;50.870;3.524;2024-02-28T01:37:17;4.94;78.48
82001;SHT30;71522;50.870;3.524;2024-02-28T01:39:45;4.94;78.55
82001;SHT30;71522;50.870;3.524;2024-02-28T01:42:11;4.94;78.57
82001;SHT30;71522;50.870;3.524;2024-02-28T01:45:03;4.87;78.62
82001;SHT30;71522;50.870;3.524;2024-02-28T01:47:29;4.87;78.81
82001;SHT30;71522;50.870;3.524;2024-02-28T01:49:57;4.80;78.54
82001;SHT30;71522;50.870;3.524;2024-02-28T01:52:23;4.71;78.87
82001;SHT30;71522;50.870;3.524;2024-02-28T01:54:59;4.68;79.19
82001;SHT30;71522;50.870;3.524;2024-02-28T01:57:31;4.61;79.52
82001;SHT30;71522;50.870;3.524;2024-02-28T02:00:00;4.58;79.69
82001;SHT30;71522;50.870;3.524;2024-02-28T02:02:26;4.57;79.80
82001;SHT30;71522;50.870;3.524;2024-02-28T02:04:52;4.52;80.19
82001;SHT30;71522;50.870;3.524;2024-02-28T02:07:19;4.46;80.25
82001;SHT30;71522;50.870;3.524;2024-02-28T02:09:46;4.42;80.63
82001;SHT30;71522;50.870;3.524;2024-02-28T02:12:32;4.45;80.97
82001;SHT30;71522;50.870;3.524;2024-02-28T02:15:01;4.54;81.05
82001;SHT30;71522;50.870;3.524;2024-02-28T02:17:31;4.64;80.89
82001;SHT30;71522;50.870;3.524;2024-02-28T02:19:58;4.67;80.71
82001;SHT30;71522;50.870;3.524;2024-02-28T02:22:38;4.68;80.72
82001;SHT30;71522;50.870;3.524;2024-02-28T02:25:10;4.74;80.60
82001;SHT30;71522;50.870;3.524;2024-02-28T02:27:38;4.81;80.53
82001;SHT30;71522;50.870;3.524;2024-02-28T02:30:10;4.87;80.17
82001;SHT30;71522;50.870;3.524;2024-02-28T02:32:57;4.92;79.92
82001;SHT30;71522;50.870;3.524;2024-02-28T02:35:25;4.91;79.85
82001;SHT30;71522;50.870;3.524;2024-02-28T02:37:57;4.88;79.81
82001;SHT30;71522;50.870;3.524;2024-02-28T02:40:28;4.87;79.79
82001;SHT30;71522;50.870;3.524;2024-02-28T02:43:03;4.83;79.93
82001;SHT30;71522;50.870;3.524;2024-02-28T02:45:29;4.78;80.17
82001;SHT30;71522;50.870;3.524;2024-02-28T02:47:57;4.70;80.68
82001;SHT30;71522;50.870;3.524;2024-02-28T02:50:32;4.76;81.14
82001;SHT30;71522;50.870;3.524;2024-02-28T02:53:02;4.88;81.49
82001;SHT30;71522;50.870;3.524;2024-02-28T02:55:33;5.01;81.48
82001;SHT30;71522;50.870;3.524;2024-02-28T02:58:00;5.09;81.48
82001;SHT30;71522;50.870;3.524;2024-02-28T03:00:26;5.28;81.30
82001;SHT30;71522;50.870;3.524;2024-02-28T03:02:55;5.40;80.87
82001;SHT30;71522;50.870;3.524;2024-02-28T03:05:21;5.46;80.55
82001;SHT30;71522;50.870;3.524;2024-02-28T03:07:57;5.56;80.23
82001;SHT30;71522;50.870;3.524;2024-02-28T03:10:23;5.62;79.66
82001;SHT30;71522;50.870;3.524;2024-02-28T03:12:58;5.64;79.53
82001;SHT30;71522;50.870;3.524;2024-02-28T03:15:27;5.70;79.05
82001;SHT30;71522;50.870;3.524;2024-02-28T03:17:56;5.71;78.93
82001;SHT30;71522;50.870;3.524;2024-02-28T03:20:22;5.74;78.86
82001;SHT30;71522;50.870;3.524;2024-02-28T03:22:51;5.71;78.97
82001;SHT30;71522;50.870;3.524;2024-02-28T03:25:22;5.77;78.97
82001;SHT30;71522;50.870;3.524;2024-02-28T03:27:50;5.78;78.87
82001;SHT30;71522;50.870;3.524;2024-02-28T03:30:30;5.83;78.87
82001;SHT30;71522;50.870;3.524;2024-02-28T03:32:56;5.87;78.80
82001;SHT30;71522;50.870;3.524;2024-02-28T03:35:21;5.93;78.73
82001;SHT30;71522;50.870;3.524;2024-02-28T03:37:50;5.93;78.70
82001;SHT30;71522;50.870;3.524;2024-02-28T03:40:16;5.95;78.63
82001;SHT30;71522;50.870;3.524;2024-02-28T03:42:41;5.91;78.60
82001;SHT30;71522;50.870;3.524;2024-02-28T03:45:08;5.91;78.55
82001;SHT30;71522;50.870;3.524;2024-02-28T03:47:45;5.81;78.99
82001;SHT30;71522;50.870;3.524;2024-02-28T03:50:11;5.71;79.53
82001;SHT30;71522;50.870;3.524;2024-02-28T03:52:46;5.78;79.70
82001;SHT30;71522;50.870;3.524;2024-02-28T03:55:24;5.86;79.69
82001;SHT30;71522;50.870;3.524;2024-02-28T03:57:53;5.94;79.50
82001;SHT30;71522;50.870;3.524;2024-02-28T04:00:24;6.00;79.35
82001;SHT30;71522;50.870;3.524;2024-02-28T04:03:10;6.07;79.24
82001;SHT30;71522;50.870;3.524;2024-02-28T04:06:02;6.07;79.43
82001;SHT30;71522;50.870;3.524;2024-02-28T04:08:31;6.08;79.62
82001;SHT30;71522;50.870;3.524;2024-02-28T04:11:01;6.11;79.64
82001;SHT30;71522;50.870;3.524;2024-02-28T04:13:30;6.08;79.85
82001;SHT30;71522;50.870;3.524;2024-02-28T04:15:56;6.13;80.15
82001;SHT30;71522;50.870;3.524;2024-02-28T04:18:22;6.18;80.21
82001;SHT30;71522;50.870;3.524;2024-02-28T04:20:48;6.24;80.23
82001;SHT30;71522;50.870;3.524;2024-02-28T04:23:21;6.28;80.26
82001;SHT30;71522;50.870;3.524;2024-02-28T04:25:47;6.28;80.26
82001;SHT30;71522;50.870;3.524;2024-02-28T04:28:19;6.32;80.39
82001;SHT30;71522;50.870;3.524;2024-02-28T04:30:53;6.39;80.30
82001;SHT30;71522;50.870;3.524;2024-02-28T04:33:28;6.41;80.08
82001;SHT30;71522;50.870;3.524;2024-02-28T04:35:56;6.43;80.13
82001;SHT30;71522;50.870;3.524;2024-02-28T04:38:23;6.43;80.20
82001;SHT30;71522;50.870;3.524;2024-02-28T04:40:50;6.46;80.23
82001;SHT30;71522;50.870;3.524;2024-02-28T04:43:16;6.49;80.31
82001;SHT30;71522;50.870;3.524;2024-02-28T04:45:46;6.50;80.30
82001;SHT30;71522;50.870;3.524;2024-02-28T04:48:15;6.48;80.42
82001;SHT30;71522;50.870;3.524;2024-02-28T04:50:44;6.50;80.64
82001;SHT30;71522;50.870;3.524;2024-02-28T04:53:32;6.61;80.57
82001;SHT30;71522;50.870;3.524;2024-02-28T04:56:07;6.66;80.49
82001;SHT30;71522;50.870;3.524;2024-02-28T04:58:35;6.68;80.43
82001;SHT30;71522;50.870;3.524;2024-02-28T05:01:21;6.68;80.59
82001;SHT30;71522;50.870;3.524;2024-02-28T05:07:16;6.62;80.81
82001;SHT30;71522;50.870;3.524;2024-02-28T05:09:44;6.55;81.18
82001;SHT30;71522;50.870;3.524;2024-02-28T05:12:14;6.53;81.43
82001;SHT30;71522;50.870;3.524;2024-02-28T05:15:00;6.61;81.43
82001;SHT30;71522;50.870;3.524;2024-02-28T05:17:39;6.61;81.43
82001;SHT30;71522;50.870;3.524;2024-02-28T05:22:52;6.70;81.59
82001;SHT30;71522;50.870;3.524;2024-02-28T05:25:18;6.69;81.78
82001;SHT30;71522;50.870;3.524;2024-02-28T05:27:50;6.69;81.94
82001;SHT30;71522;50.870;3.524;2024-02-28T05:30:16;6.73;81.98
82001;SHT30;71522;50.870;3.524;2024-02-28T05:32:53;6.83;82.04
82001;SHT30;71522;50.870;3.524;2024-02-28T05:35:22;6.89;81.96
82001;SHT30;71522;50.870;3.524;2024-02-28T05:38:03;6.99;81.72
82001;SHT30;71522;50.870;3.524;2024-02-28T05:40:44;7.03;81.64
82001;SHT30;71522;50.870;3.524;2024-02-28T05:43:10;7.08;81.57
82001;SHT30;71522;50.870;3.524;2024-02-28T05:45:38;7.18;81.31
82001;SHT30;71522;50.870;3.524;2024-02-28T05:48:04;7.18;81.14
82001;SHT30;71522;50.870;3.524;2024-02-28T05:50:30;7.18;81.04
82001;SHT30;71522;50.870;3.524;2024-02-28T05:53:00;7.18;81.06
82001;SHT30;71522;50.870;3.524;2024-02-28T05:55:32;7.24;81.01
82001;SHT30;71522;50.870;3.524;2024-02-28T05:57:58;7.21;80.95
82001;SHT30;71522;50.870;3.524;2024-02-28T06:00:24;7.14;81.12
82001;SHT30;71522;50.870;3.524;2024-02-28T06:02:56;7.11;81.26
82001;SHT30;71522;50.870;3.524;2024-02-28T06:05:21;7.14;81.56
82001;SHT30;71522;50.870;3.524;2024-02-28T06:07:47;7.21;81.51
82001;SHT30;71522;50.870;3.524;2024-02-28T06:10:13;7.22;81.61
82001;SHT30;71522;50.870;3.524;2024-02-28T06:12:42;7.22;81.47
82001;SHT30;71522;50.870;3.524;2024-02-28T06:15:07;7.21;81.39
82001;SHT30;71522;50.870;3.524;2024-02-28T06:17:38;7.14;81.32
82001;SHT30;71522;50.870;3.524;2024-02-28T06:20:05;7.13;81.26
82001;SHT30;71522;50.870;3.524;2024-02-28T06:22:37;7.13;81.09
82001;SHT30;71522;50.870;3.524;2024-02-28T06:25:09;7.13;81.10
82001;SHT30;71522;50.870;3.524;2024-02-28T06:27:46;7.10;81.20
82001;SHT30;71522;50.870;3.524;2024-02-28T06:30:19;7.10;81.19
82001;SHT30;71522;50.870;3.524;2024-02-28T06:33:00;7.08;81.08
82001;SHT30;71522;50.870;3.524;2024-02-28T06:35:27;7.03;81.21
82001;SHT30;71522;50.870;3.524;2024-02-28T06:38:08;6.99;81.41
82001;SHT30;71522;50.870;3.524;2024-02-28T06:40:39;6.96;81.68
82001;SHT30;71522;50.870;3.524;2024-02-28T06:43:15;7.03;81.83
82001;SHT30;71522;50.870;3.524;2024-02-28T06:45:42;7.07;81.59
82001;SHT30;71522;50.870;3.524;2024-02-28T06:48:10;7.03;81.49
82001;SHT30;71522;50.870;3.524;2024-02-28T06:50:38;6.97;81.77
82001;SHT30;71522;50.870;3.524;2024-02-28T06:53:06;6.97;82.04
82001;SHT30;71522;50.870;3.524;2024-02-28T06:55:43;6.96;82.24
82001;SHT30;71522;50.870;3.524;2024-02-28T06:58:11;6.99;82.30
82001;SHT30;71522;50.870;3.524;2024-02-28T07:00:37;6.96;82.37
82001;SHT30;71522;50.870;3.524;2024-02-28T07:03:13;6.97;82.51
82001;SHT30;71522;50.870;3.524;2024-02-28T07:05:42;6.99;82.88
82001;SHT30;71522;50.870;3.524;2024-02-28T07:08:08;7.04;82.95
82001;SHT30;71522;50.870;3.524;2024-02-28T07:10:42;7.07;82.99
82001;SHT30;71522;50.870;3.524;2024-02-28T07:13:15;7.13;83.03
82001;SHT30;71522;50.870;3.524;2024-02-28T07:15:47;7.21;83.10
82001;SHT30;71522;50.870;3.524;2024-02-28T07:18:24;7.21;82.90
82001;SHT30;71522;50.870;3.524;2024-02-28T07:20:57;7.34;82.55
82001;SHT30;71522;50.870;3.524;2024-02-28T07:23:26;7.48;82.39
82001;SHT30;71522;50.870;3.524;2024-02-28T07:25:59;7.58;82.11
82001;SHT30;71522;50.870;3.524;2024-02-28T07:28:37;7.65;81.93
82001;SHT30;71522;50.870;3.524;2024-02-28T07:31:03;7.75;81.61
82001;SHT30;71522;50.870;3.524;2024-02-28T07:33:29;7.80;81.27
82001;SHT30;71522;50.870;3.524;2024-02-28T07:36:02;7.85;81.04
82001;SHT30;71522;50.870;3.524;2024-02-28T07:38:28;7.90;80.96
82001;SHT30;71522;50.870;3.524;2024-02-28T07:40:54;7.97;80.90
82001;SHT30;71522;50.870;3.524;2024-02-28T07:43:22;8.03;80.78
82001;SHT30;71522;50.870;3.524;2024-02-28T07:45:50;8.10;80.43
82001;SHT30;71522;50.870;3.524;2024-02-28T07:48:22;8.14;80.40
82001;SHT30;71522;50.870;3.524;2024-02-28T07:50:47;8.23;80.28
82001;SHT30;71522;50.870;3.524;2024-02-28T07:53:13;8.28;80.15
82001;SHT30;71522;50.870;3.524;2024-02-28T07:55:42;8.30;80.12
82001;SHT30;71522;50.870;3.524;2024-02-28T07:58:10;8.36;79.96
82001;SHT30;71522;50.870;3.524;2024-02-28T08:00:36;8.38;79.83
82001;SHT30;71522;50.870;3.524;2024-02-28T08:03:02;8.38;79.74
82001;SHT30;71522;50.870;3.524;2024-02-28T08:05:28;8.41;79.78
82001;SHT30;71522;50.870;3.524;2024-02-28T08:08:06;8.45;79.55
82001;SHT30;71522;50.870;3.524;2024-02-28T08:10:38;8.40;79.66
82001;SHT30;71522;50.870;3.524;2024-02-28T08:13:11;8.38;79.97
82001;SHT30;71522;50.870;3.524;2024-02-28T08:15:40;8.41;79.99
82001;SHT30;71522;50.870;3.524;2024-02-28T08:18:13;8.48;80.02
82001;SHT30;71522;50.870;3.524;2024-02-28T08:20:58;8.54;79.92
82001;SHT30;71522;50.870;3.524;2024-02-28T08:23:36;8.58;79.50
82001;SHT30;71522;50.870;3.524;2024-02-28T08:26:08;8.58;79.30
82001;SHT30;71522;50.870;3.524;2024-02-28T08:28:48;8.52;79.25
82001;SHT30;71522;50.870;3.524;2024-02-28T08:31:14;8.64;79.34
82001;SHT30;71522;50.870;3.524;2024-02-28T08:33:53;8.75;79.30
82001;SHT30;71522;50.870;3.524;2024-02-28T08:36:21;8.95;79.27
82001;SHT30;71522;50.870;3.524;2024-02-28T08:38:55;9.07;79.02
82001;SHT30;71522;50.870;3.524;2024-02-28T08:41:25;9.19;78.65
82001;SHT30;71522;50.870;3.524;2024-02-28T08:43:51;9.30;78.40
82001;SHT30;71522;50.870;3.524;2024-02-28T08:46:37;9.34;78.03
82001;SHT30;71522;50.870;3.524;2024-02-28T08:49:03;9.22;77.27
82001;SHT30;71522;50.870;3.524;2024-02-28T08:51:29;9.16;78.02
82001;SHT30;71522;50.870;3.524;2024-02-28T08:53:55;9.09;77.97
82001;SHT30;71522;50.870;3.524;2024-02-28T08:56:28;9.24;78.40
82001;SHT30;71522;50.870;3.524;2024-02-28T08:58:56;9.41;78.10
82001;SHT30;71522;50.870;3.524;2024-02-28T09:01:23;9.48;76.99
82001;SHT30;71522;50.870;3.524;2024-02-28T09:03:49;9.54;77.22
82001;SHT30;71522;50.870;3.524;2024-02-28T09:06:15;9.51;76.91
82001;SHT30;71522;50.870;3.524;2024-02-28T09:08:40;9.70;77.74
82001;SHT30;71522;50.870;3.524;2024-02-28T09:11:07;9.85;77.20
82001;SHT30;71522;50.870;3.524;2024-02-28T09:13:33;10.02;76.30
82001;SHT30;71522;50.870;3.524;2024-02-28T09:16:01;9.95;76.27
82001;SHT30;71522;50.870;3.524;2024-02-28T09:18:27;9.92;76.03
82001;SHT30;71522;50.870;3.524;2024-02-28T09:20:55;9.95;75.72
82001;SHT30;71522;50.870;3.524;2024-02-28T09:23:20;9.92;76.51
82001;SHT30;71522;50.870;3.524;2024-02-28T09:25:46;10.12;76.95
82001;SHT30;71522;50.870;3.524;2024-02-28T09:28:12;10.28;75.44
82001;SHT30;71522;50.870;3.524;2024-02-28T09:30:40;10.33;75.17
82001;SHT30;71522;50.870;3.524;2024-02-28T09:33:06;10.29;75.90
82001;SHT30;71522;50.870;3.524;2024-02-28T09:35:31;10.32;75.69
82001;SHT30;71522;50.870;3.524;2024-02-28T09:37:57;10.36;75.35
82001;SHT30;71522;50.870;3.524;2024-02-28T09:40:23;10.29;75.37
82001;SHT30;71522;50.870;3.524;2024-02-28T09:42:52;9.92;76.05
82001;SHT30;71522;50.870;3.524;2024-02-28T09:45:23;9.68;76.60
82001;SHT30;71522;50.870;3.524;2024-02-28T09:47:50;9.68;77.75
82001;SHT30;71522;50.870;3.524;2024-02-28T09:50:24;9.74;78.43
82001;SHT30;71522;50.870;3.524;2024-02-28T09:52:51;9.81;78.25
82001;SHT30;71522;50.870;3.524;2024-02-28T09:55:16;9.86;78.25
82001;SHT30;71522;50.870;3.524;2024-02-28T09:57:43;9.79;78.62
82001;SHT30;71522;50.870;3.524;2024-02-28T10:00:09;9.73;78.13
82001;SHT30;71522;50.870;3.524;2024-02-28T10:02:37;9.65;78.52
82001;SHT30;71522;50.870;3.524;2024-02-28T10:05:06;9.68;79.36
82001;SHT30;71522;50.870;3.524;2024-02-28T10:07:32;9.79;79.09
82001;SHT30;71522;50.870;3.524;2024-02-28T10:10:00;9.85;78.83
82001;SHT30;71522;50.870;3.524;2024-02-28T10:12:26;9.74;78.55
82001;SHT30;71522;50.870;3.524;2024-02-28T10:14:52;9.64;78.58
82001;SHT30;71522;50.870;3.524;2024-02-28T10:17:18;9.62;79.16
82001;SHT30;71522;50.870;3.524;2024-02-28T10:19:46;9.64;79.04
82001;SHT30;71522;50.870;3.524;2024-02-28T10:22:12;9.59;79.22
82001;SHT30;71522;50.870;3.524;2024-02-28T10:24:39;9.54;79.17
82001;SHT30;71522;50.870;3.524;2024-02-28T10:27:05;9.44;79.47
82001;SHT30;71522;50.870;3.524;2024-02-28T10:29:31;9.47;79.37
82001;SHT30;71522;50.870;3.524;2024-02-28T10:31:59;9.37;79.21
82001;SHT30;71522;50.870;3.524;2024-02-28T10:34:26;9.38;79.52
82001;SHT30;71522;50.870;3.524;2024-02-28T10:36:51;9.43;79.86
82001;SHT30;71522;50.870;3.524;2024-02-28T10:39:18;9.51;79.65
82001;SHT30;71522;50.870;3.524;2024-02-28T10:41:46;9.58;79.71
82001;SHT30;71522;50.870;3.524;2024-02-28T10:44:16;9.61;79.92
82001;SHT30;71522;50.870;3.524;2024-02-28T10:46:44;9.67;80.09
82001;SHT30;71522;50.870;3.524;2024-02-28T10:49:10;9.70;79.80
82001;SHT30;71522;50.870;3.524;2024-02-28T10:51:37;9.74;79.58
82001;SHT30;71522;50.870;3.524;2024-02-28T10:54:08;9.74;79.78
82001;SHT30;71522;50.870;3.524;2024-02-28T10:56:38;9.81;79.78
82001;SHT30;71522;50.870;3.524;2024-02-28T10:59:10;10.01;79.87
82001;SHT30;71522;50.870;3.524;2024-02-28T11:01:37;10.17;79.81
82001;SHT30;71522;50.870;3.524;2024-02-28T11:04:05;10.32;80.02
82001;SHT30;71522;50.870;3.524;2024-02-28T11:06:31;10.40;79.00
82001;SHT30;71522;50.870;3.524;2024-02-28T11:09:02;10.54;78.40
82001;SHT30;71522;50.870;3.524;2024-02-28T11:11:31;10.43;78.12
82001;SHT30;71522;50.870;3.524;2024-02-28T11:14:03;10.49;78.74
82001;SHT30;71522;50.870;3.524;2024-02-28T11:16:36;10.64;79.14
82001;SHT30;71522;50.870;3.524;2024-02-28T11:19:03;10.84;78.48
82001;SHT30;71522;50.870;3.524;2024-02-28T11:21:34;10.94;78.23
82001;SHT30;71522;50.870;3.524;2024-02-28T11:24:09;11.02;77.99
82001;SHT30;71522;50.870;3.524;2024-02-28T11:26:38;10.94;78.02
82001;SHT30;71522;50.870;3.524;2024-02-28T11:29:07;10.95;77.72
82001;SHT30;71522;50.870;3.524;2024-02-28T11:31:33;11.02;77.70
82001;SHT30;71522;50.870;3.524;2024-02-28T11:34:00;11.14;77.47
82001;SHT30;71522;50.870;3.524;2024-02-28T11:36:26;11.01;77.49
82001;SHT30;71522;50.870;3.524;2024-02-28T11:38:51;10.91;76.90
82001;SHT30;71522;50.870;3.524;2024-02-28T11:41:25;10.91;76.52
82001;SHT30;71522;50.870;3.524;2024-02-28T11:44:13;10.84;77.14
82001;SHT30;71522;50.870;3.524;2024-02-28T11:46:43;11.01;76.91
82001;SHT30;71522;50.870;3.524;2024-02-28T11:49:10;11.00;76.62
82001;SHT30;71522;50.870;3.524;2024-02-28T11:51:36;11.22;76.83
82001;SHT30;71522;50.870;3.524;2024-02-28T11:54:02;11.38;75.99
82001;SHT30;71522;50.870;3.524;2024-02-28T11:56:27;11.53;75.76
82001;SHT30;71522;50.870;3.524;2024-02-28T11:58:58;11.63;76.01
82001;SHT30;71522;50.870;3.524;2024-02-28T12:01:38;11.59;75.63
82001;SHT30;71522;50.870;3.524;2024-02-28T12:04:05;11.72;76.09
82001;SHT30;71522;50.870;3.524;2024-02-28T12:06:33;11.81;75.00
82001;SHT30;71522;50.870;3.524;2024-02-28T12:09:00;11.86;73.51
82001;SHT30;71522;50.870;3.524;2024-02-28T12:11:25;11.86;73.36
82001;SHT30;71522;50.870;3.524;2024-02-28T12:13:54;11.79;73.78
82001;SHT30;71522;50.870;3.524;2024-02-28T12:16:25;11.76;73.54
82001;SHT30;71522;50.870;3.524;2024-02-28T12:18:53;11.76;74.55
82001;SHT30;71522;50.870;3.524;2024-02-28T12:21:20;11.67;74.11
82001;SHT30;71522;50.870;3.524;2024-02-28T12:23:50;11.70;74.09
82001;SHT30;71522;50.870;3.524;2024-02-28T12:26:17;11.79;74.16
82001;SHT30;71522;50.870;3.524;2024-02-28T12:28:44;11.81;74.70
82001;SHT30;71522;50.870;3.524;2024-02-28T12:31:11;11.84;73.68
82001;SHT30;71522;50.870;3.524;2024-02-28T12:33:37;11.95;73.74
82001;SHT30;71522;50.870;3.524;2024-02-28T12:36:04;12.00;73.71
82001;SHT30;71522;50.870;3.524;2024-02-28T12:38:30;12.07;73.94
82001;SHT30;71522;50.870;3.524;2024-02-28T12:40:57;12.01;73.39
82001;SHT30;71522;50.870;3.524;2024-02-28T12:43:23;12.04;73.43
82001;SHT30;71522;50.870;3.524;2024-02-28T12:45:48;11.91;73.59
82001;SHT30;71522;50.870;3.524;2024-02-28T12:48:14;11.95;73.93
82001;SHT30;71522;50.870;3.524;2024-02-28T12:50:40;11.87;74.23
82001;SHT30;71522;50.870;3.524;2024-02-28T12:53:06;11.83;73.87
82001;SHT30;71522;50.870;3.524;2024-02-28T12:55:35;11.60;74.04
82001;SHT30;71522;50.870;3.524;2024-02-28T12:58:01;11.56;73.91
82001;SHT30;71522;50.870;3.524;2024-02-28T13:00:30;11.58;74.27
82001;SHT30;71522;50.870;3.524;2024-02-28T13:02:55;11.58;73.91
82001;SHT30;71522;50.870;3.524;2024-02-28T13:05:21;11.63;73.90
82001;SHT30;71522;50.870;3.524;2024-02-28T13:07:47;11.67;74.46
82001;SHT30;71522;50.870;3.524;2024-02-28T13:10:12;11.79;73.73
82001;SHT30;71522;50.870;3.524;2024-02-28T13:12:38;11.94;73.53
82001;SHT30;71522;50.870;3.524;2024-02-28T13:15:05;12.17;73.70
82001;SHT30;71522;50.870;3.524;2024-02-28T13:17:33;12.34;72.38
82001;SHT30;71522;50.870;3.524;2024-02-28T13:19:59;12.45;72.24
82001;SHT30;71522;50.870;3.524;2024-02-28T13:22:24;12.52;71.81
82001;SHT30;71522;50.870;3.524;2024-02-28T13:24:50;12.49;72.07
82001;SHT30;71522;50.870;3.524;2024-02-28T13:27:16;12.51;71.55
82001;SHT30;71522;50.870;3.524;2024-02-28T13:29:42;12.51;71.61
82001;SHT30;71522;50.870;3.524;2024-02-28T13:32:08;12.41;72.55
82001;SHT30;71522;50.870;3.524;2024-02-28T13:34:34;12.51;71.73
82001;SHT30;71522;50.870;3.524;2024-02-28T13:37:00;12.56;70.70
82001;SHT30;71522;50.870;3.524;2024-02-28T13:39:25;12.49;71.38
82001;SHT30;71522;50.870;3.524;2024-02-28T13:41:53;12.46;71.59
82001;SHT30;71522;50.870;3.524;2024-02-28T13:44:18;12.52;71.44
82001;SHT30;71522;50.870;3.524;2024-02-28T13:46:49;12.51;71.04
82001;SHT30;71522;50.870;3.524;2024-02-28T13:49:17;12.55;71.85
82001;SHT30;71522;50.870;3.524;2024-02-28T13:51:43;12.45;72.65
82001;SHT30;71522;50.870;3.524;2024-02-28T13:54:09;12.42;72.95
82001;SHT30;71522;50.870;3.524;2024-02-28T13:56:35;12.48;71.90
82001;SHT30;71522;50.870;3.524;2024-02-28T13:59:01;12.44;71.60
82001;SHT30;71522;50.870;3.524;2024-02-28T14:01:26;12.25;71.38
82001;SHT30;71522;50.870;3.524;2024-02-28T14:03:54;12.28;71.90
82001;SHT30;71522;50.870;3.524;2024-02-28T14:06:20;12.32;71.99
82001;SHT30;71522;50.870;3.524;2024-02-28T14:08:46;12.38;73.10
82001;SHT30;71522;50.870;3.524;2024-02-28T14:11:13;12.44;71.95
82001;SHT30;71522;50.870;3.524;2024-02-28T14:13:41;12.45;71.21
82001;SHT30;71522;50.870;3.524;2024-02-28T14:16:08;12.42;72.40
82001;SHT30;71522;50.870;3.524;2024-02-28T14:18:34;12.30;72.01
82001;SHT30;71522;50.870;3.524;2024-02-28T14:21:00;12.34;72.59
82001;SHT30;71522;50.870;3.524;2024-02-28T14:23:27;12.37;72.07
82001;SHT30;71522;50.870;3.524;2024-02-28T14:25:53;12.32;72.16
82001;SHT30;71522;50.870;3.524;2024-02-28T14:28:19;12.44;72.03
82001;SHT30;71522;50.870;3.524;2024-02-28T14:30:45;12.56;72.19
82001;SHT30;71522;50.870;3.524;2024-02-28T14:33:14;12.68;71.86
82001;SHT30;71522;50.870;3.524;2024-02-28T14:35:41;12.70;71.51
82001;SHT30;71522;50.870;3.524;2024-02-28T14:38:08;12.59;70.43
82001;SHT30;71522;50.870;3.524;2024-02-28T14:40:34;12.49;71.99
82001;SHT30;71522;50.870;3.524;2024-02-28T14:43:01;12.32;72.28
82001;SHT30;71522;50.870;3.524;2024-02-28T14:45:27;12.14;72.66
82001;SHT30;71522;50.870;3.524;2024-02-28T14:47:53;12.07;72.97
82001;SHT30;71522;50.870;3.524;2024-02-28T14:50:19;12.01;72.86
82001;SHT30;71522;50.870;3.524;2024-02-28T14:52:46;11.98;72.62
82001;SHT30;71522;50.870;3.524;2024-02-28T14:55:11;11.97;72.49
82001;SHT30;71522;50.870;3.524;2024-02-28T14:57:38;11.89;72.70
82001;SHT30;71522;50.870;3.524;2024-02-28T15:00:06;11.79;73.10
82001;SHT30;71522;50.870;3.524;2024-02-28T15:02:34;11.67;73.42
82001;SHT30;71522;50.870;3.524;2024-02-28T15:05:01;11.47;73.99
82001;SHT30;71522;50.870;3.524;2024-02-28T15:07:32;11.39;73.78
82001;SHT30;71522;50.870;3.524;2024-02-28T15:10:00;11.43;74.26
82001;SHT30;71522;50.870;3.524;2024-02-28T15:12:26;11.43;73.92
82001;SHT30;71522;50.870;3.524;2024-02-28T15:14:52;11.39;74.48
82001;SHT30;71522;50.870;3.524;2024-02-28T15:17:20;11.29;74.44
82001;SHT30;71522;50.870;3.524;2024-02-28T15:19:46;11.19;74.82
82001;SHT30;71522;50.870;3.524;2024-02-28T15:22:12;11.11;74.58
82001;SHT30;71522;50.870;3.524;2024-02-28T15:24:37;10.97;75.08
82001;SHT30;71522;50.870;3.524;2024-02-28T15:27:08;10.93;75.43
82001;SHT30;71522;50.870;3.524;2024-02-28T15:29:33;11.01;75.54
82001;SHT30;71522;50.870;3.524;2024-02-28T15:31:59;10.91;75.14
82001;SHT30;71522;50.870;3.524;2024-02-28T15:34:27;10.98;75.37
82001;SHT30;71522;50.870;3.524;2024-02-28T15:36:55;11.01;74.91
82001;SHT30;71522;50.870;3.524;2024-02-28T15:39:21;11.10;75.03
82001;SHT30;71522;50.870;3.524;2024-02-28T15:41:46;11.04;74.74
82001;SHT30;71522;50.870;3.524;2024-02-28T15:44:14;10.97;75.45
82001;SHT30;71522;50.870;3.524;2024-02-28T15:46:40;10.95;75.24
82001;SHT30;71522;50.870;3.524;2024-02-28T15:49:06;10.83;75.65
82001;SHT30;71522;50.870;3.524;2024-02-28T15:51:34;10.88;75.40
82001;SHT30;71522;50.870;3.524;2024-02-28T15:54:01;10.91;75.10
82001;SHT30;71522;50.870;3.524;2024-02-28T15:56:26;10.94;75.20